Time;durP1;ratioP1;P1;durP2;ratioP2;P2;SDS_P1;SDS_P2;PMS_P1;PMS_P2;Temp;Humidity;BMP_temperature;BMP_pressure;BME280_temperature;BME280_humidity;BME280_pressure;Samples;Min_cycle;Max_cycle;Signal;HPM_P1;HPM_P2
2022/01/22 00:01:18;;;;;;;5.53;2.43;;;;;;;-3.08;63.85;96957.88;5114695;28;20795;-36
2022/01/22 00:03:45;;;;;;;3.80;2.17;;;;;;;-3.07;63.76;96951.75;5114416;28;20442;-35
2022/01/22 00:06:13;;;;;;;2.47;1.40;;;;;;;-3.04;63.75;96943.66;5114403;28;20441;-35
2022/01/22 00:08:42;;;;;;;2.40;1.73;;;;;;;-3.06;63.79;96950.78;5114278;28;20928;-35
2022/01/22 00:11:10;;;;;;;1.80;1.70;;;;;;;-3.06;64.22;96940.38;5114275;28;20446;-37
2022/01/22 00:16:21;;;;;;;1.77;1.67;;;;;;;-3.02;64.63;96957.31;5114349;28;20425;-36
2022/01/22 00:18:48;;;;;;;1.53;1.40;;;;;;;-3.05;64.65;96954.19;5114192;28;20783;-37
2022/01/22 00:21:16;;;;;;;4.30;1.77;;;;;;;-3.04;64.51;96948.03;5114183;28;20441;-36
2022/01/22 00:23:54;;;;;;;5.63;2.73;;;;;;;-3.07;64.74;96943.97;5114096;28;20450;-36
2022/01/22 00:26:22;;;;;;;1.60;1.50;;;;;;;-2.99;65.22;96946.63;5114108;28;20462;-34
2022/01/22 00:28:49;;;;;;;2.80;2.03;;;;;;;-2.98;65.24;96943.06;5113876;28;21014;-36
2022/01/22 00:31:16;;;;;;;5.33;2.20;;;;;;;-2.97;65.58;96938.69;5114294;28;20442;-34
2022/01/22 00:33:43;;;;;;;2.10;1.70;;;;;;;-2.98;65.27;96947.44;5113965;28;20445;-35
2022/01/22 00:36:11;;;;;;;3.37;2.60;;;;;;;-2.98;65.32;96937.88;5113895;28;20449;-36
2022/01/22 00:38:38;;;;;;;6.03;2.70;;;;;;;-3.06;65.81;96909.19;5113868;28;20444;-37
2022/01/22 00:41:07;;;;;;;6.77;2.27;;;;;;;-2.98;66.00;96935.28;5113871;28;20450;-37
2022/01/22 00:43:34;;;;;;;7.97;2.57;;;;;;;-2.96;66.00;96929.94;5114127;28;20456;-37
2022/01/22 00:46:01;;;;;;;2.17;1.80;;;;;;;-2.95;66.10;96932.38;5114045;28;20438;-34
2022/01/22 00:48:29;;;;;;;2.47;2.27;;;;;;;-3.14;66.49;96901.31;5113671;28;20504;-34
2022/01/22 00:50:57;;;;;;;3.23;1.93;;;;;;;-2.99;66.57;96925.84;5113751;28;20939;-35
2022/01/22 00:53:26;;;;;;;5.83;2.80;;;;;;;-2.96;66.40;96920.34;5113708;28;20488;-34
2022/01/22 00:55:54;;;;;;;5.53;2.27;;;;;;;-3.02;66.01;96923.53;5116576;28;20441;-36
2022/01/22 00:58:22;;;;;;;4.00;2.23;;;;;;;-2.99;66.43;96920.66;5118311;28;20457;-34
2022/01/22 01:00:50;;;;;;;34.17;2.97;;;;;;;-3.02;66.51;96926.13;5117928;28;20449;-34
2022/01/22 01:03:17;;;;;;;8.40;2.63;;;;;;;-3.13;66.80;96900.38;5117912;28;20937;-36
2022/01/22 01:05:44;;;;;;;2.77;1.80;;;;;;;-3.01;67.78;96917.38;5118168;28;20456;-35
2022/01/22 01:08:12;;;;;;;4.23;2.20;;;;;;;-3.00;67.68;96913.81;5117962;28;20490;-35
2022/01/22 01:10:39;;;;;;;3.60;2.70;;;;;;;-2.97;67.57;96907.50;5117776;28;20444;-37
2022/01/22 01:13:06;;;;;;;2.97;2.67;;;;;;;-2.97;67.73;96913.53;5117576;28;20452;-35
2022/01/22 01:15:42;;;;;;;2.20;2.10;;;;;;;-2.95;67.99;96911.56;5117895;28;20857;-35
2022/01/22 01:32:19;;;;;;;10.90;2.30;;;;;;;-2.96;67.96;96889.16;5117525;28;20502;-36
2022/01/22 01:34:49;;;;;;;2.97;1.73;;;;;;;-2.99;67.63;96889.47;5117357;28;20521;-37
2022/01/22 01:37:19;;;;;;;6.13;2.13;;;;;;;-2.98;67.58;96887.69;5117576;28;20452;-35
2022/01/22 01:39:50;;;;;;;8.93;2.80;;;;;;;-3.02;67.83;96875.97;5117260;28;20513;-36
2022/01/22 01:42:23;;;;;;;7.03;3.37;;;;;;;-3.01;67.32;96874.97;5117188;28;20970;-35
2022/01/22 01:44:50;;;;;;;8.50;2.20;;;;;;;-3.04;67.57;96876.09;5117000;28;20437;-37
2022/01/22 01:47:20;;;;;;;4.13;2.70;;;;;;;-3.07;67.88;96865.22;5117037;28;20434;-34
2022/01/22 01:49:48;;;;;;;4.73;2.20;;;;;;;-3.06;67.69;96872.03;5116858;28;20501;-38
2022/01/22 01:52:21;;;;;;;3.60;2.10;;;;;;;-3.03;67.70;96869.13;5117344;28;20449;-36
2022/01/22 01:55:01;;;;;;;2.90;1.70;;;;;;;-3.05;67.91;96869.28;5117265;28;20422;-37
2022/01/22 01:57:38;;;;;;;10.37;2.57;;;;;;;-3.05;67.71;96873.66;5117270;28;20430;-34
2022/01/22 02:00:09;;;;;;;11.93;2.50;;;;;;;-3.07;67.69;96871.22;5116835;28;20441;-37
2022/01/22 02:02:38;;;;;;;10.00;3.07;;;;;;;-3.09;68.10;96868.75;5116820;28;20839;-35
2022/01/22 02:05:08;;;;;;;3.43;2.67;;;;;;;-3.11;68.39;96862.09;5116699;28;20941;-37
2022/01/22 02:07:38;;;;;;;4.80;2.27;;;;;;;-3.10;68.19;96859.34;5116534;28;20513;-37
2022/01/22 02:10:07;;;;;;;3.57;2.00;;;;;;;-3.11;68.10;96862.91;5116588;28;20450;-37
2022/01/22 02:12:59;;;;;;;4.40;2.30;;;;;;;-3.11;68.48;96851.69;5116869;28;20443;-37
2022/01/22 02:23:49;;;;;;;12.03;3.20;;;;;;;-3.12;69.14;96858.69;5116824;28;20483;-35
2022/01/22 02:26:18;;;;;;;3.07;2.30;;;;;;;-3.12;69.09;96857.84;5117126;28;20451;-37
2022/01/22 02:28:49;;;;;;;6.93;3.20;;;;;;;-3.12;69.00;96866.47;5116425;28;20508;-34
2022/01/22 02:31:24;;;;;;;4.60;2.80;;;;;;;-3.15;68.93;96850.34;5116581;28;20434;-37
2022/01/22 02:33:58;;;;;;;8.43;4.00;;;;;;;-3.17;69.32;96852.28;5116475;28;20438;-38
2022/01/22 02:36:29;;;;;;;4.03;1.80;;;;;;;-3.15;69.12;96843.38;5116453;28;20845;-37
2022/01/22 02:39:04;;;;;;;3.17;2.10;;;;;;;-3.16;69.13;96846.13;5116128;28;20902;-35
2022/01/22 02:41:31;;;;;;;2.93;2.10;;;;;;;-3.15;69.59;96837.38;5116314;28;20426;-36
2022/01/22 02:43:58;;;;;;;7.47;2.03;;;;;;;-3.14;69.58;96836.38;5116024;28;20442;-35
2022/01/22 02:46:28;;;;;;;12.20;3.50;;;;;;;-3.15;69.54;96832.97;5115873;28;20442;-35
2022/01/22 02:48:57;;;;;;;5.27;2.90;;;;;;;-3.16;69.45;96835.72;5115538;28;20533;-38
2022/01/22 02:51:25;;;;;;;5.30;2.37;;;;;;;-3.09;69.06;96853.19;5115786;28;20442;-37
2022/01/22 02:53:55;;;;;;;2.73;2.50;;;;;;;-3.10;69.25;96845.53;5116089;28;20518;-37
2022/01/22 02:56:23;;;;;;;10.40;2.30;;;;;;;-3.13;69.65;96846.66;5115823;28;20487;-35
2022/01/22 02:58:51;;;;;;;7.20;2.37;;;;;;;-3.09;69.01;96839.38;5115659;28;20446;-35
2022/01/22 03:01:18;;;;;;;4.17;2.37;;;;;;;-3.43;69.13;96782.09;5115872;28;20446;-34
2022/01/22 03:03:46;;;;;;;3.13;2.00;;;;;;;-3.09;69.47;96840.19;5115574;28;20445;-35
2022/01/22 03:06:13;;;;;;;5.60;3.10;;;;;;;-3.08;70.01;96838.41;5115473;28;20524;-37
2022/01/22 03:08:42;;;;;;;4.13;1.70;;;;;;;-3.06;70.21;96835.66;5115394;28;21060;-35
2022/01/22 03:11:19;;;;;;;2.00;1.80;;;;;;;-3.04;70.13;96844.94;5115703;28;20519;-37
2022/01/22 03:16:48;;;;;;;2.70;1.97;;;;;;;-2.97;70.04;96842.53;5115514;28;20406;-36
2022/01/22 03:19:30;;;;;;;3.03;1.97;;;;;;;-3.04;69.93;96839.72;5115141;28;20525;-36
2022/01/22 03:22:12;;;;;;;2.43;2.23;;;;;;;-3.06;69.84;96833.06;5116377;28;20442;-34
2022/01/22 03:27:28;;;;;;;3.30;2.00;;;;;;;-3.04;69.32;96829.34;5115303;28;20405;-36
2022/01/22 03:29:56;;;;;;;2.73;2.03;;;;;;;-3.11;69.31;96815.34;5115033;28;20481;-37
2022/01/22 03:32:27;;;;;;;7.67;2.90;;;;;;;-3.12;69.07;96813.69;5115034;28;20445;-37
2022/01/22 03:34:57;;;;;;;3.73;2.43;;;;;;;-3.14;68.93;96815.63;5115038;28;20431;-35
2022/01/22 03:37:27;;;;;;;3.93;2.90;;;;;;;-3.21;68.62;96799.00;5114958;28;20932;-35
2022/01/22 03:39:55;;;;;;;5.43;2.13;;;;;;;-3.20;68.56;96814.44;5114912;28;20441;-35
2022/01/22 03:42:22;;;;;;;2.23;1.70;;;;;;;-3.17;68.62;96810.72;5115123;28;20456;-35
2022/01/22 03:44:51;;;;;;;4.37;2.90;;;;;;;-3.18;68.88;96822.09;5114800;28;20444;-36
2022/01/22 03:47:19;;;;;;;12.00;2.87;;;;;;;-3.22;69.11;96800.78;5115077;28;20466;-35
2022/01/22 03:49:46;;;;;;;12.97;3.23;;;;;;;-3.19;68.71;96816.06;5114417;28;20497;-37
2022/01/22 03:52:14;;;;;;;12.20;2.83;;;;;;;-3.18;68.20;96804.72;5115493;28;20452;-35
2022/01/22 03:54:41;;;;;;;9.83;3.60;;;;;;;-3.19;68.83;96799.69;5114568;28;20438;-36
2022/01/22 03:57:09;;;;;;;3.30;2.40;;;;;;;-3.22;69.03;96807.78;5114864;28;20856;-35
2022/01/22 03:59:36;;;;;;;4.10;2.33;;;;;;;-3.31;68.69;96794.72;5114513;28;20438;-37
2022/01/22 04:04:53;;;;;;;4.10;1.73;;;;;;;-3.28;68.41;96800.59;5114822;28;20405;-35
2022/01/22 04:08:06;;;;;;;2.90;2.17;;;;;;;-3.28;68.44;96805.78;5114399;28;20905;-37
2022/01/22 04:10:34;;;;;;;10.43;2.23;;;;;;;-3.34;68.49;96807.97;5114337;28;20447;-36
2022/01/22 04:13:05;;;;;;;2.60;2.00;;;;;;;-3.36;68.83;96804.72;5114242;28;20438;-37
2022/01/22 04:15:36;;;;;;;3.10;1.73;;;;;;;-3.36;68.26;96802.13;5114331;28;20429;-36
2022/01/22 04:26:34;;;;;;;4.70;2.73;;;;;;;-3.49;69.44;96796.50;5051821;28;20939;-37
2022/01/22 04:29:02;;;;;;;7.63;4.07;;;;;;;-3.52;69.08;96797.59;5050985;28;20998;-37
2022/01/22 04:31:29;;;;;;;6.23;3.50;;;;;;;-3.50;69.39;96797.47;5051165;28;20484;-37
2022/01/22 04:33:58;;;;;;;8.67;5.93;;;;;;;-3.50;69.85;96790.50;5051427;28;20455;-37
2022/01/22 04:36:25;;;;;;;22.87;6.97;;;;;;;-3.51;69.90;96790.63;5051275;28;20444;-37
2022/01/22 04:38:52;;;;;;;30.23;14.63;;;;;;;-3.56;68.02;96783.28;5051299;28;20463;-38
2022/01/22 04:41:21;;;;;;;28.93;16.17;;;;;;;-3.60;68.58;96786.34;5051339;28;20453;-35
2022/01/22 04:43:50;;;;;;;18.03;9.60;;;;;;;-3.63;68.60;96781.44;5051153;28;20445;-38
2022/01/22 04:46:22;;;;;;;11.10;8.27;;;;;;;-3.66;68.33;96790.31;5051220;28;20443;-38
2022/01/22 04:48:54;;;;;;;11.40;6.57;;;;;;;-3.67;68.44;96786.09;5051002;28;20594;-36
2022/01/22 04:56:52;;;;;;;8.67;4.30;;;;;;;-3.64;68.48;96779.81;5051304;28;20412;-38
2022/01/22 04:59:19;;;;;;;9.17;5.60;;;;;;;-3.63;68.62;96781.44;5058897;28;20442;-38
2022/01/22 05:01:47;;;;;;;7.63;6.93;;;;;;;-3.61;68.20;96769.13;5114067;28;20449;-38
2022/01/22 05:04:14;;;;;;;8.60;5.90;;;;;;;-3.62;68.03;96783.06;5113873;28;20438;-38
2022/01/22 05:06:43;;;;;;;17.90;5.80;;;;;;;-3.63;68.12;96777.06;5113591;28;20452;-35
2022/01/22 05:09:10;;;;;;;12.03;6.73;;;;;;;-3.62;68.08;96783.06;5113570;28;20494;-37
2022/01/22 05:11:37;;;;;;;9.80;5.47;;;;;;;-3.61;67.60;96775.13;5113560;28;20917;-36
2022/01/22 05:14:04;;;;;;;3.17;2.53;;;;;;;-3.57;67.14;96770.44;5113901;28;20445;-36
2022/01/22 05:16:32;;;;;;;9.57;2.93;;;;;;;-3.53;67.21;96774.38;5113567;28;20439;-36
2022/01/22 05:19:03;;;;;;;8.20;3.80;;;;;;;-3.51;67.23;96764.66;5113513;28;20530;-36
2022/01/22 05:21:33;;;;;;;6.67;3.97;;;;;;;-3.47;66.81;96770.38;5113941;28;20427;-36
2022/01/22 05:24:06;;;;;;;8.30;2.20;;;;;;;-3.48;67.53;96769.59;5113448;28;20441;-36
2022/01/22 05:27:00;;;;;;;10.10;7.30;;;;;;;-3.47;67.31;96766.00;5113536;28;20462;-36
2022/01/22 05:29:58;;;;;;;17.07;7.63;;;;;;;-3.45;67.24;96765.88;5113718;28;20489;-37
2022/01/22 05:32:33;;;;;;;14.70;6.17;;;;;;;-3.45;66.99;96761.47;5113274;28;20438;-36
2022/01/22 05:37:45;;;;;;;12.80;7.87;;;;;;;-3.41;66.83;96760.22;5113549;28;20410;-36
2022/01/22 05:40:14;;;;;;;4.20;3.20;;;;;;;-3.38;66.34;96752.13;5113052;28;20499;-35
2022/01/22 05:42:41;;;;;;;5.63;2.00;;;;;;;-3.39;66.03;96755.69;5117114;28;20533;-36
2022/01/22 05:45:09;;;;;;;4.43;2.27;;;;;;;-3.38;66.37;96765.09;5117393;28;20438;-38
2022/01/22 05:47:36;;;;;;;4.50;2.03;;;;;;;-3.34;66.39;96766.44;5117259;28;20449;-36
2022/01/22 05:50:09;;;;;;;9.73;2.20;;;;;;;-3.30;65.87;96769.56;5117328;28;20496;-35
2022/01/22 05:52:44;;;;;;;5.67;2.30;;;;;;;-3.30;65.31;96752.19;5116977;28;20441;-38
2022/01/22 06:00:38;;;;;;;10.93;2.83;;;;;;;-3.19;65.02;96734.75;5117200;28;20495;-38
2022/01/22 06:03:05;;;;;;;11.00;3.53;;;;;;;-3.06;63.89;96734.34;5116745;28;20438;-38
2022/01/22 06:05:32;;;;;;;5.17;3.13;;;;;;;-2.83;63.57;96742.47;5116647;28;20445;-36
2022/01/22 06:07:59;;;;;;;4.37;2.27;;;;;;;-2.59;62.85;96750.38;5116628;28;20441;-39
2022/01/22 06:10:29;;;;;;;8.50;4.30;;;;;;;-2.47;62.21;96756.13;5116928;28;20497;-39
2022/01/22 06:13:12;;;;;;;8.93;4.63;;;;;;;-2.37;62.35;96758.59;5116796;28;20449;-38
2022/01/22 06:15:39;;;;;;;8.97;2.67;;;;;;;-2.29;60.71;96743.03;5116474;28;20764;-37
2022/01/22 06:18:07;;;;;;;7.97;4.77;;;;;;;-2.26;61.36;96750.53;5116682;28;20438;-39
2022/01/22 06:20:34;;;;;;;8.23;4.20;;;;;;;-2.28;60.72;96736.84;5116405;28;20523;-39
2022/01/22 06:23:02;;;;;;;13.60;4.47;;;;;;;-2.22;61.18;96735.41;5116350;28;20913;-39
2022/01/22 06:25:29;;;;;;;24.73;5.50;;;;;;;-2.10;60.27;96750.59;5116250;28;20449;-37
2022/01/22 06:27:58;;;;;;;11.70;4.60;;;;;;;-1.88;60.53;96737.97;5116183;28;20921;-37
2022/01/22 06:30:26;;;;;;;30.07;13.17;;;;;;;-1.68;58.72;96744.53;5116438;28;20496;-39
2022/01/22 06:32:53;;;;;;;20.00;10.00;;;;;;;-1.47;58.17;96740.63;5116475;28;20442;-38
2022/01/22 06:35:20;;;;;;;22.23;7.40;;;;;;;-1.31;58.60;96740.66;5116043;28;20438;-39
2022/01/22 06:37:48;;;;;;;22.30;9.63;;;;;;;-1.24;58.39;96746.81;5116321;28;20929;-39
2022/01/22 06:43:01;;;;;;;9.90;5.53;;;;;;;-1.35;57.60;96743.75;5116088;28;20475;-39
2022/01/22 06:45:28;;;;;;;5.60;4.70;;;;;;;-1.44;56.69;96737.72;5115870;28;20449;-39
2022/01/22 06:47:55;;;;;;;24.83;12.17;;;;;;;-1.55;56.98;96741.44;5115637;28;20914;-38
2022/01/22 06:50:23;;;;;;;16.10;9.07;;;;;;;-1.56;57.00;96742.41;5116121;28;20481;-38
2022/01/22 06:52:56;;;;;;;7.80;3.60;;;;;;;-1.56;57.84;96741.59;5114761;28;21005;-36
2022/01/22 06:55:31;;;;;;;15.13;8.87;;;;;;;-1.58;58.26;96722.72;5115895;28;20430;-39
2022/01/22 06:57:58;;;;;;;4.70;2.57;;;;;;;-1.58;58.30;96741.75;5116028;28;20433;-38
2022/01/22 07:00:26;;;;;;;17.03;7.27;;;;;;;-1.57;58.74;96739.97;5115661;28;20442;-38
2022/01/22 07:02:54;;;;;;;6.53;4.60;;;;;;;-1.41;58.29;96729.56;5115564;28;20453;-37
2022/01/22 07:05:21;;;;;;;4.97;3.33;;;;;;;-1.27;58.36;96735.91;5115873;28;20442;-35
2022/01/22 07:07:48;;;;;;;3.73;2.30;;;;;;;-1.07;58.06;96723.38;5115810;28;20465;-38
2022/01/22 07:10:16;;;;;;;2.33;2.10;;;;;;;-0.92;57.35;96719.09;5115354;28;20490;-38
2022/01/22 07:12:43;;;;;;;7.90;2.60;;;;;;;-0.80;57.36;96721.34;5115707;28;20446;-36
2022/01/22 07:15:10;;;;;;;7.70;2.77;;;;;;;-0.67;57.47;96716.44;5115657;28;20445;-37
2022/01/22 07:17:40;;;;;;;3.20;2.90;;;;;;;-0.57;56.99;96722.28;5115603;28;20845;-36
2022/01/22 07:20:14;;;;;;;5.60;2.43;;;;;;;-0.43;56.43;96718.16;5115198;28;20933;-37
2022/01/22 07:22:50;;;;;;;5.60;3.47;;;;;;;-0.35;56.46;96725.94;5115523;28;20497;-36
2022/01/22 07:25:17;;;;;;;7.70;4.20;;;;;;;-0.20;56.66;96720.81;5115126;28;20508;-35
2022/01/22 07:27:44;;;;;;;14.83;6.00;;;;;;;-0.15;56.92;96721.16;5115458;28;20442;-37
2022/01/22 07:30:12;;;;;;;19.33;7.60;;;;;;;-0.23;56.68;96724.59;5114908;28;20834;-36
2022/01/22 07:32:43;;;;;;;11.93;4.40;;;;;;;-0.35;57.15;96701.66;5116239;28;20449;-38
2022/01/22 07:35:12;;;;;;;6.27;4.33;;;;;;;-0.08;57.17;96716.88;5115050;28;20441;-36
2022/01/22 07:37:40;;;;;;;12.60;4.80;;;;;;;-0.18;57.00;96705.00;5115003;28;20446;-35
2022/01/22 07:40:09;;;;;;;12.07;6.43;;;;;;;-0.24;57.77;96722.16;5114960;28;20444;-35
2022/01/22 07:42:37;;;;;;;7.67;3.30;;;;;;;-0.33;58.39;96700.50;5114812;28;20447;-36
2022/01/22 07:45:05;;;;;;;19.83;8.30;;;;;;;-0.37;58.62;96696.59;5114829;28;20450;-36
2022/01/22 07:47:33;;;;;;;16.23;8.03;;;;;;;-0.49;58.79;96703.19;5115018;28;20799;-38
2022/01/22 07:50:02;;;;;;;25.80;9.00;;;;;;;-0.48;59.12;96689.16;5114506;28;20516;-39
2022/01/22 07:52:29;;;;;;;25.97;6.70;;;;;;;-0.38;59.09;96700.22;5114603;28;20442;-39
2022/01/22 07:54:57;;;;;;;18.70;7.10;;;;;;;-0.48;58.98;96695.19;5114884;28;20438;-36
2022/01/22 07:57:25;;;;;;;5.87;3.90;;;;;;;-0.44;59.85;96696.47;5114609;28;20457;-36
2022/01/22 07:59:52;;;;;;;5.20;3.63;;;;;;;-0.45;60.37;96694.84;5114775;28;20847;-35
2022/01/22 08:02:19;;;;;;;11.60;5.20;;;;;;;-0.45;60.66;96683.63;5114625;28;20469;-35
2022/01/22 08:04:46;;;;;;;25.87;8.97;;;;;;;-0.51;60.60;96697.31;5114245;28;20445;-35
2022/01/22 08:07:15;;;;;;;9.47;5.70;;;;;;;-0.52;61.29;96698.28;5115475;28;20472;-35
2022/01/22 08:09:43;;;;;;;3.97;3.53;;;;;;;-0.53;61.02;96697.50;5114572;28;20484;-36
2022/01/22 08:12:11;;;;;;;4.80;3.17;;;;;;;-0.54;60.59;96690.63;5114548;28;20442;-36
2022/01/22 08:14:38;;;;;;;10.60;6.47;;;;;;;-0.47;61.44;96704.66;5114339;28;20438;-38
2022/01/22 08:17:05;;;;;;;7.27;5.50;;;;;;;-0.35;60.98;96714.69;5114131;28;20442;-36
2022/01/22 08:19:33;;;;;;;48.77;15.77;;;;;;;-0.41;60.95;96705.75;5114124;28;20439;-37
2022/01/22 08:22:00;;;;;;;16.70;5.77;;;;;;;-0.24;60.90;96701.28;5114108;28;20442;-36
2022/01/22 08:24:28;;;;;;;22.63;8.07;;;;;;;-0.10;60.66;96707.59;5114024;28;20452;-35
2022/01/22 08:27:10;;;;;;;26.37;9.10;;;;;;;0.02;60.35;96697.56;5114354;28;20449;-38
2022/01/22 08:29:38;;;;;;;30.13;9.83;;;;;;;0.08;60.13;96704.69;5114271;28;20897;-36
2022/01/22 08:32:11;;;;;;;15.10;6.60;;;;;;;0.08;59.88;96694.25;5114315;28;20442;-37
2022/01/22 08:37:23;;;;;;;12.57;4.00;;;;;;;0.08;58.95;96678.59;5113953;28;20912;-35
2022/01/22 08:39:51;;;;;;;10.53;5.23;;;;;;;0.42;59.34;96693.06;5114209;28;20442;-38
2022/01/22 08:42:19;;;;;;;21.50;3.33;;;;;;;0.48;58.81;96684.53;5113787;28;20442;-38
2022/01/22 08:44:46;;;;;;;27.73;7.90;;;;;;;0.48;59.06;96689.75;5113844;28;20442;-37
2022/01/22 08:47:14;;;;;;;10.23;6.63;;;;;;;0.63;58.80;96685.38;5114059;28;20442;-36
2022/01/22 08:49:41;;;;;;;7.93;3.70;;;;;;;0.85;58.16;96683.72;5113360;28;20485;-37
2022/01/22 08:52:12;;;;;;;14.60;5.80;;;;;;;0.65;58.33;96667.72;5113704;28;20780;-38
2022/01/22 08:54:40;;;;;;;17.50;6.10;;;;;;;0.38;58.72;96680.34;5113728;28;20431;-35
2022/01/22 08:57:09;;;;;;;25.80;9.20;;;;;;;0.36;59.16;96655.38;5113728;28;20442;-38
2022/01/22 08:59:36;;;;;;;11.27;4.47;;;;;;;0.71;59.18;96680.09;5113959;28;20442;-36
2022/01/22 09:02:05;;;;;;;15.20;6.17;;;;;;;0.73;57.95;96678.13;5113905;28;20517;-35
2022/01/22 09:04:33;;;;;;;16.40;5.53;;;;;;;0.63;58.19;96672.31;5113932;28;20454;-36
2022/01/22 09:07:01;;;;;;;23.20;7.30;;;;;;;0.57;58.90;96673.03;5113605;28;20441;-36
2022/01/22 09:09:28;;;;;;;27.47;6.70;;;;;;;0.80;58.49;96663.34;5113775;28;20438;-36
2022/01/22 09:11:56;;;;;;;17.40;8.17;;;;;;;0.81;57.96;96667.56;5113547;28;20495;-36
2022/01/22 09:14:25;;;;;;;16.27;8.50;;;;;;;0.82;58.42;96671.81;5113814;28;20450;-35
2022/01/22 09:16:52;;;;;;;9.60;3.77;;;;;;;0.74;57.75;96664.03;5116550;28;20442;-36
2022/01/22 09:19:23;;;;;;;7.30;4.53;;;;;;;0.75;57.77;96660.47;5117828;28;20437;-36
2022/01/22 09:21:50;;;;;;;9.03;3.63;;;;;;;0.94;57.82;96655.69;5117904;28;20426;-36
2022/01/22 09:24:18;;;;;;;31.40;10.70;;;;;;;1.25;57.58;96649.47;5117425;28;20451;-36
2022/01/22 09:26:46;;;;;;;5.27;3.90;;;;;;;1.60;57.44;96653.97;5117495;28;20442;-35
2022/01/22 09:29:15;;;;;;;4.17;2.73;;;;;;;1.81;54.94;96658.44;5117699;28;20434;-36
2022/01/22 09:31:44;;;;;;;2.63;2.20;;;;;;;1.99;54.59;96634.47;5109996;28;20498;-37
2022/01/22 09:34:11;;;;;;;5.50;3.50;;;;;;;2.15;55.12;96640.44;5105175;28;20443;-35
2022/01/22 09:36:39;;;;;;;13.17;7.13;;;;;;;2.31;54.89;96627.13;5105706;28;20494;-35
2022/01/22 09:39:06;;;;;;;6.90;3.13;;;;;;;2.53;53.20;96627.91;5117329;28;20446;-36
2022/01/22 09:41:33;;;;;;;4.80;3.00;;;;;;;2.65;52.61;96630.81;5117474;28;20446;-35
2022/01/22 09:44:01;;;;;;;7.40;4.80;;;;;;;2.42;52.40;96623.97;5117131;28;20438;-36
2022/01/22 09:46:29;;;;;;;7.60;3.20;;;;;;;2.56;52.47;96610.97;5116980;28;20446;-36
2022/01/22 09:48:58;;;;;;;5.10;3.47;;;;;;;2.74;51.82;96608.72;5116869;28;20466;-35
2022/01/22 09:51:26;;;;;;;5.80;4.30;;;;;;;2.79;51.16;96587.16;5117136;28;20862;-36
2022/01/22 09:53:53;;;;;;;4.37;2.50;;;;;;;2.45;50.87;96591.34;5113752;28;20807;-35
2022/01/22 09:56:23;;;;;;;7.23;2.00;;;;;;;1.96;51.38;96586.91;5117173;28;20442;-38
2022/01/22 09:58:52;;;;;;;6.40;2.87;;;;;;;1.67;53.18;96596.47;5117422;28;20441;-35
2022/01/22 10:01:24;;;;;;;2.67;2.47;;;;;;;1.20;53.59;96616.03;5101494;28;20454;-36
2022/01/22 10:03:53;;;;;;;4.33;2.43;;;;;;;1.03;54.44;96597.09;5096313;28;20442;-35
2022/01/22 10:06:24;;;;;;;7.20;4.80;;;;;;;0.80;55.56;96592.78;5096635;28;20442;-35
2022/01/22 10:08:55;;;;;;;4.70;2.63;;;;;;;0.92;55.99;96592.31;5096299;28;20427;-34
2022/01/22 10:11:25;;;;;;;7.63;3.20;;;;;;;1.09;55.77;96592.94;5096174;28;20981;-34
2022/01/22 10:13:59;;;;;;;4.17;3.40;;;;;;;0.84;55.03;96568.88;5096135;28;20447;-34
2022/01/22 10:16:27;;;;;;;6.93;2.57;;;;;;;0.48;55.33;96538.25;5096200;28;20899;-35
2022/01/22 10:19:16;;;;;;;14.00;8.60;;;;;;;0.62;55.19;96558.31;5096412;28;20443;-37
2022/01/22 10:21:47;;;;;;;14.03;8.17;;;;;;;0.52;56.04;96563.03;5096104;28;20906;-34
2022/01/22 10:24:28;;;;;;;8.13;7.00;;;;;;;0.50;57.86;96570.22;5095972;28;20514;-34
2022/01/22 10:27:22;;;;;;;9.80;5.30;;;;;;;0.42;58.46;96567.69;5095109;28;20971;-34
2022/01/22 10:29:53;;;;;;;7.07;4.17;;;;;;;0.43;57.68;96566.69;5095810;28;20926;-34
2022/01/22 10:32:24;;;;;;;17.07;6.27;;;;;;;0.50;57.94;96563.19;5096076;28;20451;-35
2022/01/22 10:35:04;;;;;;;17.80;6.57;;;;;;;0.59;57.10;96569.16;5095794;28;20489;-34
2022/01/22 10:37:33;;;;;;;20.63;10.83;;;;;;;0.69;56.76;96563.63;5095638;28;20435;-35
2022/01/22 10:40:19;;;;;;;9.37;4.10;;;;;;;0.80;56.34;96564.03;5095987;28;20441;-34
2022/01/22 10:42:46;;;;;;;20.73;7.77;;;;;;;0.86;56.20;96545.97;5095976;28;20438;-35
2022/01/22 10:45:22;;;;;;;11.10;8.03;;;;;;;0.87;55.19;96552.84;5095607;28;20443;-35
2022/01/22 10:47:49;;;;;;;4.50;2.80;;;;;;;0.92;54.78;96546.06;5096459;28;20427;-34
2022/01/22 10:50:18;;;;;;;5.33;3.40;;;;;;;0.94;54.59;96553.75;5109978;28;20473;-35
2022/01/22 10:52:51;;;;;;;2.70;2.07;;;;;;;0.77;54.90;96553.91;5115816;28;20441;-35
2022/01/22 10:55:19;;;;;;;2.00;1.90;;;;;;;0.67;57.07;96552.56;5115792;28;20974;-34
2022/01/22 10:58:08;;;;;;;2.40;2.17;;;;;;;0.53;58.02;96549.75;5116050;28;20449;-35
2022/01/22 11:00:36;;;;;;;5.33;2.60;;;;;;;0.43;59.20;96537.94;5115941;28;20477;-34
2022/01/22 11:03:20;;;;;;;2.00;1.80;;;;;;;0.30;59.90;96536.78;5115627;28;20441;-35
2022/01/22 11:05:48;;;;;;;3.43;2.27;;;;;;;0.20;61.29;96541.44;5115562;28;20906;-34
2022/01/22 11:08:16;;;;;;;2.83;2.00;;;;;;;0.15;61.97;96525.47;5115785;28;20442;-36
2022/01/22 11:10:45;;;;;;;3.53;2.40;;;;;;;0.19;62.74;96534.56;5115691;28;20964;-35
2022/01/22 11:13:12;;;;;;;7.00;3.10;;;;;;;0.27;62.44;96542.34;5115394;28;20434;-34
2022/01/22 11:15:41;;;;;;;5.30;2.70;;;;;;;0.43;61.92;96532.72;5115301;28;20442;-34
2022/01/22 11:18:11;;;;;;;5.43;3.77;;;;;;;0.64;60.81;96522.38;5115292;28;20438;-35
2022/01/22 11:20:39;;;;;;;3.40;2.93;;;;;;;0.93;59.52;96533.84;5115621;28;20442;-38
2022/01/22 11:23:09;;;;;;;8.73;3.07;;;;;;;1.07;57.96;96516.50;5115370;28;20491;-35
2022/01/22 11:25:38;;;;;;;5.90;3.07;;;;;;;1.12;57.50;96504.50;5115119;28;20888;-34
2022/01/22 11:28:06;;;;;;;19.53;7.43;;;;;;;1.04;57.80;96516.88;5115377;28;20434;-34
2022/01/22 11:30:34;;;;;;;11.57;5.60;;;;;;;0.97;57.53;96503.72;5114987;28;20492;-36
2022/01/22 11:33:05;;;;;;;9.10;4.40;;;;;;;0.89;57.06;96517.69;5115366;28;20806;-35
2022/01/22 11:35:42;;;;;;;21.80;7.90;;;;;;;0.87;57.87;96521.47;5115296;28;20426;-35
2022/01/22 11:38:15;;;;;;;14.03;5.43;;;;;;;0.78;58.68;96516.34;5114987;28;20426;-37
2022/01/22 11:41:03;;;;;;;31.50;10.70;;;;;;;0.71;58.51;96512.84;5114839;28;20462;-35
2022/01/22 11:43:52;;;;;;;37.93;14.90;;;;;;;0.96;58.38;96510.72;5114791;28;20465;-35
2022/01/22 11:46:27;;;;;;;8.97;4.03;;;;;;;1.01;55.59;96512.78;5114736;28;20487;-35
2022/01/22 11:49:24;;;;;;;39.63;12.33;;;;;;;0.98;54.65;96494.88;5114725;28;20591;-34
2022/01/22 11:51:53;;;;;;;21.00;7.47;;;;;;;0.91;53.79;96512.28;5114963;28;20888;-34
2022/01/22 11:54:22;;;;;;;36.57;13.47;;;;;;;0.80;54.88;96508.34;5114548;28;20479;-35
2022/01/22 11:56:53;;;;;;;30.90;11.83;;;;;;;0.63;54.69;96505.09;5114514;28;21020;-36
2022/01/22 11:59:33;;;;;;;24.83;10.27;;;;;;;0.60;57.04;96500.22;5114513;28;20442;-34
2022/01/22 12:02:03;;;;;;;19.43;7.73;;;;;;;0.53;55.21;96510.56;5114446;28;20943;-35
2022/01/22 12:04:50;;;;;;;16.93;9.77;;;;;;;0.48;55.82;96517.34;5114423;28;20793;-37
2022/01/22 12:07:23;;;;;;;31.97;9.03;;;;;;;0.42;56.43;96502.38;5114377;28;20434;-35
2022/01/22 12:10:21;;;;;;;29.50;11.33;;;;;;;0.38;57.18;96501.91;5114292;28;20437;-36
2022/01/22 12:15:55;;;;;;;17.23;6.77;;;;;;;0.27;57.48;96500.56;5114353;28;20909;-36
2022/01/22 12:18:35;;;;;;;8.87;6.80;;;;;;;0.43;56.98;96504.00;5114516;28;20422;-35
2022/01/22 12:23:56;;;;;;;6.40;3.50;;;;;;;0.73;56.85;96499.56;5114299;28;20433;-34
2022/01/22 12:26:51;;;;;;;23.07;8.43;;;;;;;0.74;55.17;96490.75;5114035;28;20446;-34
2022/01/22 12:29:38;;;;;;;15.77;9.50;;;;;;;0.82;55.97;96504.53;5104868;28;20446;-35
2022/01/22 12:32:35;;;;;;;14.10;6.23;;;;;;;0.68;55.28;96476.59;5114241;28;20478;-34
2022/01/22 12:35:08;;;;;;;20.40;9.50;;;;;;;0.78;54.25;96508.50;5114017;28;20517;-34
2022/01/22 12:37:41;;;;;;;16.20;7.63;;;;;;;0.68;53.86;96497.50;5114285;28;20426;-34
2022/01/22 12:40:10;;;;;;;11.73;4.10;;;;;;;0.51;52.91;96486.44;5113933;28;20433;-34
2022/01/22 12:43:01;;;;;;;13.10;7.07;;;;;;;0.56;52.66;96489.31;5114149;28;20804;-34
2022/01/22 12:45:30;;;;;;;7.10;3.63;;;;;;;0.51;52.62;96488.22;5114219;28;20811;-34
2022/01/22 12:47:58;;;;;;;6.00;3.33;;;;;;;0.36;51.84;96499.47;5113599;28;20444;-34
2022/01/22 12:50:32;;;;;;;8.87;5.17;;;;;;;0.37;52.56;96495.09;5112913;28;20423;-34
2022/01/22 12:53:04;;;;;;;20.50;8.27;;;;;;;0.47;53.58;96494.81;5114114;28;20446;-34
2022/01/22 12:56:01;;;;;;;7.00;4.83;;;;;;;0.53;53.83;96501.94;5113983;28;20426;-34
2022/01/22 12:58:31;;;;;;;6.00;3.40;;;;;;;0.59;53.24;96504.63;5114103;28;20456;-35